Time;durP1;ratioP1;P1;durP2;ratioP2;P2;SDS_P1;SDS_P2;PMS_P1;PMS_P2;Temp;Humidity;BMP_temperature;BMP_pressure;BME280_temperature;BME280_humidity;BME280_pressure;Samples;Min_cycle;Max_cycle;Signal;HPM_P1;HPM_P2
2021/03/04 00:00:21;;;;;;;15.50;7.30;;;;;;;;;;5052540;28;20556;-70
2021/03/04 00:02:48;;;;;;;10.37;5.87;;;;;;;;;;5056544;28;20423;-70
2021/03/04 00:05:14;;;;;;;18.73;6.87;;;;;;;;;;5072903;28;20403;-70
2021/03/04 00:07:40;;;;;;;12.13;7.40;;;;;;;;;;5079620;28;20439;-70
2021/03/04 00:10:11;;;;;;;14.73;6.50;;;;;;;;;;5096981;28;20397;-70
2021/03/04 00:12:37;;;;;;;11.03;7.70;;;;;;;;;;5095282;28;20431;-70
2021/03/04 00:15:04;;;;;;;15.00;7.30;;;;;;;;;;5096943;28;20502;-70
2021/03/04 00:17:30;;;;;;;10.20;7.23;;;;;;;;;;5080711;28;20480;-70
2021/03/04 00:19:56;;;;;;;12.57;7.30;;;;;;;;;;5096633;28;20453;-70
2021/03/04 00:22:22;;;;;;;12.93;6.90;;;;;;;;;;5094814;28;20401;-70
2021/03/04 00:24:48;;;;;;;11.23;6.13;;;;;;;;;;5089643;28;20416;-70
2021/03/04 00:27:14;;;;;;;11.47;6.47;;;;;;;;;;5056462;28;20420;-70
2021/03/04 00:29:40;;;;;;;14.80;7.40;;;;;;;;;;5076960;28;20506;-70
2021/03/04 00:32:06;;;;;;;20.33;6.90;;;;;;;;;;5075839;28;20407;-70
2021/03/04 00:34:32;;;;;;;11.10;6.63;;;;;;;;;;5094122;28;20424;-70
2021/03/04 00:36:59;;;;;;;11.07;6.93;;;;;;;;;;5096716;28;20420;-70
2021/03/04 00:39:25;;;;;;;11.30;7.00;;;;;;;;;;5079883;28;20451;-70
2021/03/04 00:41:51;;;;;;;12.70;6.20;;;;;;;;;;5076246;28;20402;-70
2021/03/04 00:44:17;;;;;;;9.73;6.33;;;;;;;;;;5091751;28;20813;-70
2021/03/04 00:46:43;;;;;;;7.93;5.80;;;;;;;;;;5096186;28;20413;-70
2021/03/04 00:49:09;;;;;;;13.73;6.60;;;;;;;;;;5080293;28;20515;-70
2021/03/04 00:51:35;;;;;;;9.93;6.60;;;;;;;;;;5075885;28;20433;-70
2021/03/04 00:54:01;;;;;;;10.70;6.30;;;;;;;;;;5083721;28;20450;-70
2021/03/04 00:56:27;;;;;;;13.40;7.70;;;;;;;;;;5075464;28;20978;-70
2021/03/04 00:58:53;;;;;;;10.23;7.13;;;;;;;;;;5078758;28;20453;-70
2021/03/04 01:01:19;;;;;;;11.47;7.03;;;;;;;;;;5075504;28;20780;-70
2021/03/04 01:03:45;;;;;;;11.00;6.63;;;;;;;;;;5063446;28;20460;-70
2021/03/04 01:06:12;;;;;;;13.10;6.87;;;;;;;;;;5096015;28;20404;-70
2021/03/04 01:08:38;;;;;;;10.90;6.00;;;;;;;;;;5083330;28;20448;-70
2021/03/04 01:11:04;;;;;;;11.63;5.73;;;;;;;;;;5055320;28;20414;-70
2021/03/04 01:13:30;;;;;;;21.33;6.97;;;;;;;;;;5064203;28;20916;-70
2021/03/04 01:15:56;;;;;;;12.00;6.10;;;;;;;;;;5080718;28;20433;-70
2021/03/04 01:18:22;;;;;;;10.53;6.30;;;;;;;;;;5074279;28;20470;-70
2021/03/04 01:20:48;;;;;;;9.67;6.10;;;;;;;;;;5075356;28;20493;-70
2021/03/04 01:23:14;;;;;;;11.63;6.33;;;;;;;;;;5075957;28;20410;-70
2021/03/04 01:25:40;;;;;;;9.00;5.83;;;;;;;;;;5077174;28;20420;-70
2021/03/04 01:28:06;;;;;;;9.00;5.90;;;;;;;;;;5073765;28;20432;-70
2021/03/04 01:30:35;;;;;;;9.20;5.43;;;;;;;;;;5075849;28;20476;-70
2021/03/04 01:33:01;;;;;;;7.47;5.60;;;;;;;;;;5076880;28;20820;-70
2021/03/04 01:35:27;;;;;;;13.60;6.67;;;;;;;;;;5055380;28;20735;-70
2021/03/04 01:37:56;;;;;;;9.93;5.87;;;;;;;;;;5057868;28;20450;-70
2021/03/04 01:40:22;;;;;;;11.37;6.00;;;;;;;;;;5080949;28;20455;-70
2021/03/04 01:42:51;;;;;;;9.13;5.83;;;;;;;;;;5074795;28;20426;-70
2021/03/04 01:45:18;;;;;;;9.70;7.20;;;;;;;;;;5091518;28;20946;-70
2021/03/04 01:47:51;;;;;;;10.60;6.23;;;;;;;;;;5093071;28;20447;-70
2021/03/04 01:50:17;;;;;;;11.33;6.40;;;;;;;;;;5083892;28;20510;-70
2021/03/04 01:52:44;;;;;;;10.27;5.60;;;;;;;;;;5075029;28;20908;-70
2021/03/04 01:55:10;;;;;;;13.00;6.20;;;;;;;;;;5090073;28;20517;-70
2021/03/04 01:57:37;;;;;;;11.77;4.73;;;;;;;;;;5080256;28;20426;-70
2021/03/04 02:00:05;;;;;;;7.97;5.07;;;;;;;;;;5084440;28;20536;-70
2021/03/04 02:02:31;;;;;;;8.20;5.50;;;;;;;;;;5074207;28;20502;-70
2021/03/04 02:04:56;;;;;;;14.47;6.30;;;;;;;;;;5087780;28;20447;-70
2021/03/04 02:07:35;;;;;;;10.23;5.27;;;;;;;;;;5094447;28;20466;-70
2021/03/04 02:10:02;;;;;;;9.77;5.17;;;;;;;;;;5091563;28;20580;-70
2021/03/04 02:12:33;;;;;;;10.10;5.30;;;;;;;;;;5054582;28;20558;-70
2021/03/04 02:15:04;;;;;;;8.23;5.33;;;;;;;;;;5082168;28;20508;-70
2021/03/04 02:17:32;;;;;;;8.40;4.50;;;;;;;;;;5094113;28;20455;-70
2021/03/04 02:20:05;;;;;;;7.70;4.63;;;;;;;;;;5092278;28;20816;-70
2021/03/04 02:22:47;;;;;;;7.23;4.67;;;;;;;;;;5056542;28;20821;-70
2021/03/04 02:25:14;;;;;;;7.87;5.00;;;;;;;;;;5074333;28;20477;-70
2021/03/04 02:27:40;;;;;;;6.77;4.40;;;;;;;;;;5073813;28;20458;-70
2021/03/04 02:30:14;;;;;;;10.87;5.77;;;;;;;;;;5086358;28;20434;-70
2021/03/04 02:32:43;;;;;;;10.20;4.53;;;;;;;;;;5076997;28;20752;-70
2021/03/04 02:35:28;;;;;;;8.43;4.40;;;;;;;;;;5087284;28;20514;-70
2021/03/04 02:37:58;;;;;;;6.67;4.43;;;;;;;;;;5094253;28;20433;-70
2021/03/04 02:40:26;;;;;;;8.23;4.87;;;;;;;;;;5073660;28;20939;-70
2021/03/04 02:42:52;;;;;;;6.40;4.40;;;;;;;;;;5073531;28;20508;-70
2021/03/04 02:45:20;;;;;;;6.13;4.23;;;;;;;;;;5077166;28;20416;-70
2021/03/04 02:47:47;;;;;;;10.63;4.50;;;;;;;;;;5073397;28;20431;-70
2021/03/04 02:50:13;;;;;;;11.30;5.47;;;;;;;;;;5082592;28;20512;-70
2021/03/04 02:52:39;;;;;;;10.07;4.87;;;;;;;;;;5082519;28;20419;-70
2021/03/04 02:55:06;;;;;;;7.20;4.57;;;;;;;;;;5080943;28;20426;-70
2021/03/04 02:57:33;;;;;;;10.20;4.53;;;;;;;;;;5079664;28;20429;-70
2021/03/04 02:59:59;;;;;;;8.70;4.07;;;;;;;;;;5070941;28;20802;-70
2021/03/04 03:02:26;;;;;;;10.70;5.43;;;;;;;;;;5067303;28;20453;-70
2021/03/04 03:04:53;;;;;;;7.20;4.57;;;;;;;;;;5065744;28;20450;-70
2021/03/04 03:07:20;;;;;;;9.63;4.73;;;;;;;;;;5091466;28;20442;-70
2021/03/04 03:09:46;;;;;;;8.63;5.00;;;;;;;;;;5089659;28;20465;-70
2021/03/04 03:12:13;;;;;;;7.03;3.80;;;;;;;;;;5093368;28;20456;-70
2021/03/04 03:14:40;;;;;;;7.73;4.07;;;;;;;;;;5089095;28;20452;-70
2021/03/04 03:17:06;;;;;;;6.73;4.80;;;;;;;;;;5072848;28;20460;-70
2021/03/04 03:19:32;;;;;;;6.87;4.80;;;;;;;;;;5072851;28;20447;-70
2021/03/04 03:21:58;;;;;;;9.73;4.47;;;;;;;;;;5072041;28;20774;-70
2021/03/04 03:24:25;;;;;;;9.33;4.47;;;;;;;;;;5072959;28;20406;-70
2021/03/04 03:26:51;;;;;;;11.70;4.80;;;;;;;;;;5058981;28;20538;-70
2021/03/04 03:29:17;;;;;;;7.57;4.63;;;;;;;;;;5053361;28;20438;-70
2021/03/04 03:31:44;;;;;;;7.17;4.27;;;;;;;;;;5085331;28;20433;-70
2021/03/04 03:34:11;;;;;;;8.30;4.77;;;;;;;;;;5093377;28;20463;-70
2021/03/04 03:36:37;;;;;;;6.97;4.30;;;;;;;;;;5091334;28;20461;-70
2021/03/04 03:39:05;;;;;;;5.57;4.10;;;;;;;;;;5092971;28;20816;-70
2021/03/04 03:41:31;;;;;;;9.23;5.30;;;;;;;;;;5087064;28;20421;-70
2021/03/04 03:43:57;;;;;;;15.30;5.33;;;;;;;;;;5074164;28;20412;-70
2021/03/04 03:46:24;;;;;;;6.83;4.90;;;;;;;;;;5084380;28;20425;-70
2021/03/04 03:48:50;;;;;;;6.07;4.57;;;;;;;;;;5091058;28;20426;-70
2021/03/04 03:51:17;;;;;;;6.70;4.60;;;;;;;;;;5079178;28;21045;-70
2021/03/04 03:53:44;;;;;;;8.70;5.20;;;;;;;;;;5072882;28;20399;-70
2021/03/04 03:56:10;;;;;;;9.07;4.20;;;;;;;;;;5079425;28;20436;-70
2021/03/04 03:58:38;;;;;;;7.80;5.17;;;;;;;;;;5072760;28;20434;-70
2021/03/04 04:01:05;;;;;;;8.50;4.63;;;;;;;;;;5077054;28;20494;-70
2021/03/04 04:03:31;;;;;;;8.63;4.17;;;;;;;;;;5072847;28;20399;-70
2021/03/04 04:05:57;;;;;;;7.07;3.80;;;;;;;;;;5061490;28;20461;-70
2021/03/04 04:08:25;;;;;;;6.40;4.50;;;;;;;;;;5072830;28;21009;-70
2021/03/04 04:10:51;;;;;;;8.70;4.10;;;;;;;;;;5072289;28;20449;-70
2021/03/04 04:13:18;;;;;;;6.77;4.00;;;;;;;;;;5072461;28;20417;-70
2021/03/04 04:15:45;;;;;;;10.30;4.27;;;;;;;;;;5072164;28;20424;-69
2021/03/04 04:18:11;;;;;;;6.47;4.87;;;;;;;;;;5072023;28;20450;-70
2021/03/04 04:20:38;;;;;;;7.67;3.63;;;;;;;;;;5070448;28;20960;-70
2021/03/04 04:23:04;;;;;;;11.33;4.53;;;;;;;;;;5065467;28;20420;-70
2021/03/04 04:25:30;;;;;;;5.33;3.87;;;;;;;;;;5057664;28;20400;-70
2021/03/04 04:27:56;;;;;;;6.20;4.20;;;;;;;;;;5090132;28;20529;-70
2021/03/04 04:30:24;;;;;;;6.63;4.10;;;;;;;;;;5093267;28;20406;-70
2021/03/04 04:32:50;;;;;;;9.63;4.83;;;;;;;;;;5080617;28;20438;-70
2021/03/04 04:35:17;;;;;;;7.13;4.50;;;;;;;;;;5072302;28;20526;-70
2021/03/04 04:37:43;;;;;;;6.80;4.20;;;;;;;;;;5087963;28;20522;-70
2021/03/04 04:40:10;;;;;;;6.13;4.10;;;;;;;;;;5092396;28;20854;-70
2021/03/04 04:42:36;;;;;;;6.13;4.00;;;;;;;;;;5070558;28;20432;-70
2021/03/04 04:45:03;;;;;;;14.47;4.70;;;;;;;;;;5089419;28;20420;-70
2021/03/04 04:47:29;;;;;;;9.13;5.03;;;;;;;;;;5090323;28;20847;-70
2021/03/04 04:49:55;;;;;;;9.50;4.90;;;;;;;;;;5092604;28;20401;-70
2021/03/04 04:52:21;;;;;;;11.03;4.80;;;;;;;;;;5091918;28;20434;-70
2021/03/04 04:54:47;;;;;;;8.80;5.37;;;;;;;;;;5074259;28;20424;-70
2021/03/04 04:57:13;;;;;;;11.50;4.50;;;;;;;;;;5081614;28;20459;-69
2021/03/04 04:59:40;;;;;;;7.10;4.10;;;;;;;;;;5076156;28;20455;-70
2021/03/04 05:02:06;;;;;;;7.73;4.67;;;;;;;;;;5085223;28;20968;-70
2021/03/04 05:04:32;;;;;;;10.13;4.13;;;;;;;;;;5062362;28;20427;-70
2021/03/04 05:06:58;;;;;;;9.80;4.20;;;;;;;;;;5084272;28;20446;-70
2021/03/04 05:09:24;;;;;;;6.70;3.87;;;;;;;;;;5095730;28;20406;-70
2021/03/04 05:11:50;;;;;;;7.10;4.50;;;;;;;;;;5085980;28;20422;-70
2021/03/04 05:14:16;;;;;;;8.73;4.23;;;;;;;;;;5075430;28;20423;-70
2021/03/04 05:16:42;;;;;;;5.97;3.63;;;;;;;;;;5080670;28;20468;-70
2021/03/04 05:19:08;;;;;;;7.83;4.93;;;;;;;;;;5084459;28;20463;-70
2021/03/04 05:21:34;;;;;;;7.00;4.27;;;;;;;;;;5085842;28;20504;-70
2021/03/04 05:24:00;;;;;;;6.37;4.77;;;;;;;;;;5090508;28;20468;-70
2021/03/04 05:26:26;;;;;;;7.63;5.07;;;;;;;;;;5082334;28;20431;-70
2021/03/04 05:28:52;;;;;;;6.67;4.03;;;;;;;;;;5095453;28;20518;-70
2021/03/04 05:31:18;;;;;;;9.20;4.70;;;;;;;;;;5093325;28;20683;-70
2021/03/04 05:33:44;;;;;;;12.60;5.67;;;;;;;;;;5095323;28;20410;-70
2021/03/04 05:36:10;;;;;;;8.23;4.40;;;;;;;;;;5081156;28;20421;-70
2021/03/04 05:38:36;;;;;;;13.13;5.63;;;;;;;;;;5095313;28;20515;-70
2021/03/04 05:41:02;;;;;;;13.00;4.60;;;;;;;;;;5093381;28;20973;-67
2021/03/04 05:43:28;;;;;;;8.00;4.00;;;;;;;;;;5095513;28;20395;-70
2021/03/04 05:45:55;;;;;;;10.13;4.30;;;;;;;;;;5075210;28;20500;-70
2021/03/04 05:48:21;;;;;;;12.60;5.77;;;;;;;;;;5095000;28;20794;-70
2021/03/04 05:50:49;;;;;;;10.47;4.43;;;;;;;;;;5093256;28;20845;-70
2021/03/04 05:53:15;;;;;;;15.57;4.63;;;;;;;;;;5082698;28;20421;-70
2021/03/04 05:55:45;;;;;;;7.37;4.90;;;;;;;;;;5075736;28;20422;-70
2021/03/04 05:58:11;;;;;;;12.90;5.90;;;;;;;;;;5094690;28;20436;-70
2021/03/04 06:00:37;;;;;;;7.23;4.87;;;;;;;;;;5092884;28;20458;-70
2021/03/04 06:03:04;;;;;;;11.97;4.83;;;;;;;;;;5094387;28;20401;-70
2021/03/04 06:05:30;;;;;;;12.00;5.67;;;;;;;;;;5088014;28;20904;-70
2021/03/04 06:07:56;;;;;;;9.60;4.83;;;;;;;;;;5075653;28;20437;-70
2021/03/04 06:10:22;;;;;;;10.50;4.77;;;;;;;;;;5053832;28;20404;-69
2021/03/04 06:12:48;;;;;;;9.90;4.87;;;;;;;;;;5093108;28;20518;-70
2021/03/04 06:15:14;;;;;;;10.60;4.70;;;;;;;;;;5093997;28;20406;-70
2021/03/04 06:17:52;;;;;;;9.93;5.10;;;;;;;;;;5091307;28;20457;-70
2021/03/04 06:20:17;;;;;;;11.53;5.40;;;;;;;;;;5072968;28;20463;-70
2021/03/04 06:22:46;;;;;;;11.23;5.53;;;;;;;;;;5091870;28;20419;-70
2021/03/04 06:25:13;;;;;;;10.20;5.27;;;;;;;;;;5086577;28;20414;-70
2021/03/04 06:27:40;;;;;;;17.33;5.47;;;;;;;;;;5071061;28;20461;-70
2021/03/04 06:30:08;;;;;;;15.13;5.00;;;;;;;;;;5074189;28;20413;-70
2021/03/04 06:32:34;;;;;;;9.43;4.83;;;;;;;;;;5089947;28;20923;-70
2021/03/04 06:35:04;;;;;;;9.13;4.83;;;;;;;;;;5094061;28;20411;-70
2021/03/04 06:37:30;;;;;;;8.40;4.70;;;;;;;;;;5073359;28;20475;-70
2021/03/04 06:39:57;;;;;;;13.33;5.10;;;;;;;;;;5073823;28;20595;-70
2021/03/04 06:42:23;;;;;;;11.87;6.20;;;;;;;;;;5087708;28;20472;-70
2021/03/04 06:44:51;;;;;;;19.63;5.40;;;;;;;;;;5074667;28;20423;-70
2021/03/04 06:47:21;;;;;;;10.87;5.10;;;;;;;;;;5073748;28;20442;-72
2021/03/04 06:49:47;;;;;;;16.30;5.88;;;;;;;;;;5071955;28;20821;-74
2021/03/04 06:52:23;;;;;;;11.60;5.73;;;;;;;;;;5076055;28;20177;-72
2021/03/04 06:54:50;;;;;;;14.40;5.87;;;;;;;;;;5073143;28;20416;-72
2021/03/04 06:57:16;;;;;;;7.67;4.93;;;;;;;;;;5073675;28;20463;-72
2021/03/04 06:59:45;;;;;;;13.50;5.47;;;;;;;;;;5080532;28;20458;-73
2021/03/04 07:02:22;;;;;;;9.47;5.37;;;;;;;;;;5083889;28;20422;-72
2021/03/04 07:04:58;;;;;;;10.53;4.57;;;;;;;;;;5073429;28;20461;-75
2021/03/04 07:07:25;;;;;;;16.60;4.70;;;;;;;;;;5073990;28;20418;-75
2021/03/04 07:09:52;;;;;;;15.03;5.70;;;;;;;;;;5078702;28;20462;-75
2021/03/04 07:12:19;;;;;;;10.38;4.90;;;;;;;;;;5087212;28;20438;-71
2021/03/04 07:14:46;;;;;;;8.63;4.27;;;;;;;;;;5093166;28;20418;-72
2021/03/04 07:17:12;;;;;;;10.30;6.37;;;;;;;;;;5083688;28;20457;-72
2021/03/04 07:19:38;;;;;;;11.90;4.70;;;;;;;;;;5075510;28;20474;-76
2021/03/04 07:22:05;;;;;;;9.50;5.03;;;;;;;;;;5072736;28;20419;-70
2021/03/04 07:24:31;;;;;;;12.75;5.30;;;;;;;;;;5061550;28;20915;-72
2021/03/04 07:26:57;;;;;;;13.53;4.63;;;;;;;;;;5074139;28;20293;-73
2021/03/04 07:29:23;;;;;;;11.57;5.23;;;;;;;;;;5072466;28;20419;-73
2021/03/04 07:31:50;;;;;;;13.53;4.90;;;;;;;;;;5073612;28;20459;-73
2021/03/04 07:34:17;;;;;;;16.90;5.22;;;;;;;;;;5071596;28;21002;-69
2021/03/04 07:36:46;;;;;;;9.70;4.13;;;;;;;;;;5071892;28;20227;-70
2021/03/04 07:39:13;;;;;;;16.60;4.57;;;;;;;;;;5074551;28;20473;-70
2021/03/04 07:41:41;;;;;;;11.00;4.60;;;;;;;;;;5072826;28;20494;-73
2021/03/04 07:44:08;;;;;;;13.93;4.50;;;;;;;;;;5072085;28;20833;-72
2021/03/04 07:46:34;;;;;;;12.63;5.63;;;;;;;;;;5077074;28;20452;-73
2021/03/04 07:49:01;;;;;;;9.90;4.90;;;;;;;;;;5079478;28;20440;-73
2021/03/04 07:51:27;;;;;;;11.27;5.00;;;;;;;;;;5076038;28;20499;-73
2021/03/04 07:53:54;;;;;;;8.67;3.80;;;;;;;;;;5093269;28;20436;-73
2021/03/04 07:56:24;;;;;;;13.23;5.53;;;;;;;;;;5076509;28;20425;-72
2021/03/04 07:58:50;;;;;;;6.67;4.40;;;;;;;;;;5071457;28;20482;-73
2021/03/04 08:01:16;;;;;;;9.33;4.30;;;;;;;;;;5070435;28;20867;-73
2021/03/04 08:04:12;;;;;;;8.40;5.27;;;;;;;;;;5064792;28;20437;-74
2021/03/04 08:06:44;;;;;;;8.07;4.60;;;;;;;;;;5043039;28;20461;-73
2021/03/04 08:09:10;;;;;;;9.67;4.40;;;;;;;;;;5062287;28;20424;-74
2021/03/04 08:11:37;;;;;;;11.53;4.23;;;;;;;;;;5068155;28;20422;-74
2021/03/04 08:14:15;;;;;;;6.50;3.93;;;;;;;;;;5070548;28;20419;-74
2021/03/04 08:16:41;;;;;;;8.23;4.13;;;;;;;;;;5069138;28;20557;-74
2021/03/04 08:19:07;;;;;;;9.80;4.17;;;;;;;;;;5062161;28;20868;-73
2021/03/04 08:21:39;;;;;;;13.33;3.83;;;;;;;;;;5070544;28;20514;-74
2021/03/04 08:24:06;;;;;;;10.00;4.07;;;;;;;;;;5063313;28;20410;-73
2021/03/04 08:26:36;;;;;;;9.27;5.00;;;;;;;;;;5065081;28;20834;-73
2021/03/04 08:29:13;;;;;;;10.03;4.27;;;;;;;;;;5065141;28;20435;-73
2021/03/04 08:31:47;;;;;;;11.10;4.47;;;;;;;;;;5072931;28;20453;-73
2021/03/04 08:34:13;;;;;;;10.73;4.03;;;;;;;;;;5072150;28;20447;-73
2021/03/04 08:36:40;;;;;;;6.13;4.33;;;;;;;;;;5070487;28;20878;-74
2021/03/04 08:39:06;;;;;;;16.67;6.50;;;;;;;;;;5071566;28;20459;-74
2021/03/04 08:41:32;;;;;;;13.30;5.10;;;;;;;;;;5066106;28;20923;-74
2021/03/04 08:44:08;;;;;;;22.17;5.23;;;;;;;;;;5065925;28;20424;-73
2021/03/04 08:46:34;;;;;;;15.20;4.90;;;;;;;;;;5071147;28;20510;-73
2021/03/04 08:49:00;;;;;;;10.77;4.53;;;;;;;;;;5074238;28;20869;-74
2021/03/04 08:51:26;;;;;;;9.87;3.83;;;;;;;;;;5074296;28;20425;-73
2021/03/04 08:53:52;;;;;;;10.63;3.80;;;;;;;;;;5084307;28;20413;-73
2021/03/04 08:56:18;;;;;;;9.13;4.03;;;;;;;;;;5071869;28;20975;-74
2021/03/04 08:58:44;;;;;;;8.13;3.80;;;;;;;;;;5049776;28;21019;-73
2021/03/04 09:01:12;;;;;;;9.57;4.33;;;;;;;;;;5068759;28;20811;-74
2021/03/04 09:03:42;;;;;;;9.10;4.30;;;;;;;;;;5070860;28;20512;-73
2021/03/04 09:06:18;;;;;;;6.30;3.50;;;;;;;;;;5073139;28;20412;-73
2021/03/04 09:08:44;;;;;;;10.93;4.87;;;;;;;;;;5070067;28;20432;-73
2021/03/04 09:11:22;;;;;;;12.87;7.10;;;;;;;;;;5073245;28;20427;-74
2021/03/04 09:13:48;;;;;;;7.70;4.63;;;;;;;;;;5075901;28;20417;-74
2021/03/04 09:16:14;;;;;;;8.53;4.63;;;;;;;;;;5072445;28;20440;-73
2021/03/04 09:18:47;;;;;;;10.17;4.60;;;;;;;;;;5072269;28;20510;-72
2021/03/04 09:21:14;;;;;;;10.20;4.80;;;;;;;;;;5063091;28;20517;-73
2021/03/04 09:23:40;;;;;;;8.50;5.13;;;;;;;;;;5077954;28;20424;-73
2021/03/04 09:26:08;;;;;;;9.13;4.83;;;;;;;;;;5073350;28;20415;-73
2021/03/04 09:28:36;;;;;;;11.40;5.10;;;;;;;;;;5061042;28;20531;-72
2021/03/04 09:31:11;;;;;;;9.33;4.37;;;;;;;;;;5072320;28;20481;-72
2021/03/04 09:33:37;;;;;;;11.73;5.00;;;;;;;;;;5071951;28;20439;-73
2021/03/04 09:36:05;;;;;;;11.50;4.37;;;;;;;;;;5073197;28;20406;-72
2021/03/04 09:38:32;;;;;;;8.97;4.57;;;;;;;;;;5071929;28;20431;-72
2021/03/04 09:41:08;;;;;;;6.90;4.73;;;;;;;;;;5071549;28;20420;-74
2021/03/04 09:43:42;;;;;;;9.67;4.93;;;;;;;;;;5070586;28;20568;-73
2021/03/04 09:46:08;;;;;;;8.93;5.13;;;;;;;;;;5055381;28;20422;-72
2021/03/04 09:48:39;;;;;;;11.83;4.80;;;;;;;;;;5073443;28;20439;-72
2021/03/04 09:51:05;;;;;;;10.03;5.40;;;;;;;;;;5072058;28;20404;-72
2021/03/04 09:53:31;;;;;;;9.20;4.60;;;;;;;;;;5073190;28;20419;-73
2021/03/04 09:56:04;;;;;;;10.57;5.70;;;;;;;;;;5078902;28;20393;-72
2021/03/04 09:58:30;;;;;;;9.57;5.17;;;;;;;;;;5073941;28;20990;-73
2021/03/04 10:00:59;;;;;;;9.37;5.60;;;;;;;;;;5081197;28;20555;-72
2021/03/04 10:03:52;;;;;;;9.07;5.33;;;;;;;;;;5075437;28;20432;-72
2021/03/04 10:06:21;;;;;;;9.00;4.70;;;;;;;;;;5068727;28;20449;-72
2021/03/04 10:08:53;;;;;;;9.57;5.07;;;;;;;;;;5077341;28;20510;-72
2021/03/04 10:11:26;;;;;;;8.83;5.13;;;;;;;;;;5057639;28;20408;-72
2021/03/04 10:13:52;;;;;;;8.00;4.93;;;;;;;;;;5075850;28;20419;-72
2021/03/04 10:16:18;;;;;;;10.57;5.43;;;;;;;;;;5054375;28;20518;-73
2021/03/04 10:18:45;;;;;;;10.50;4.63;;;;;;;;;;5060302;28;20439;-73
2021/03/04 10:21:12;;;;;;;8.57;4.57;;;;;;;;;;5067764;28;20416;-74
2021/03/04 10:23:38;;;;;;;8.30;4.70;;;;;;;;;;5070312;28;20476;-74
2021/03/04 10:26:04;;;;;;;12.13;5.20;;;;;;;;;;5058534;28;20436;-74
2021/03/04 10:28:30;;;;;;;7.30;4.47;;;;;;;;;;5063988;28;20534;-72
2021/03/04 10:30:56;;;;;;;6.53;4.20;;;;;;;;;;5072977;28;20919;-73
2021/03/04 10:33:22;;;;;;;9.10;4.27;;;;;;;;;;5068082;28;21090;-72
2021/03/04 10:35:48;;;;;;;7.90;4.57;;;;;;;;;;5053999;28;20424;-73
2021/03/04 10:38:14;;;;;;;10.23;4.90;;;;;;;;;;5044795;28;20516;-73
2021/03/04 10:40:40;;;;;;;7.10;4.37;;;;;;;;;;5063234;28;20554;-73
2021/03/04 10:43:07;;;;;;;6.23;4.27;;;;;;;;;;5069397;28;20420;-72
2021/03/04 10:45:33;;;;;;;10.50;4.63;;;;;;;;;;5073140;28;20408;-72
2021/03/04 10:47:59;;;;;;;8.80;4.40;;;;;;;;;;5073132;28;20515;-72
2021/03/04 10:50:25;;;;;;;9.50;4.77;;;;;;;;;;5077178;28;20571;-72
2021/03/04 10:52:51;;;;;;;10.57;5.00;;;;;;;;;;5077950;28;20420;-72
2021/03/04 10:55:17;;;;;;;7.80;4.27;;;;;;;;;;5069622;28;20507;-72
2021/03/04 10:57:44;;;;;;;10.20;4.87;;;;;;;;;;5070231;28;20810;-72
2021/03/04 11:00:10;;;;;;;12.60;5.50;;;;;;;;;;5072379;28;20477;-72
2021/03/04 11:02:37;;;;;;;11.37;5.20;;;;;;;;;;5064965;28;20580;-71
2021/03/04 11:05:04;;;;;;;8.70;5.30;;;;;;;;;;5070331;28;20432;-72
2021/03/04 11:07:30;;;;;;;11.17;5.70;;;;;;;;;;5075466;28;20438;-72
2021/03/04 11:09:56;;;;;;;10.57;5.53;;;;;;;;;;5083325;28;20416;-72
2021/03/04 11:12:22;;;;;;;10.13;5.50;;;;;;;;;;5065930;28;20422;-72
2021/03/04 11:14:48;;;;;;;8.60;5.10;;;;;;;;;;5060451;28;20511;-72
2021/03/04 11:17:16;;;;;;;10.97;6.50;;;;;;;;;;5091161;22;21030;-83
2021/03/04 11:19:43;;;;;;;9.70;5.93;;;;;;;;;;5075752;28;20965;-84
2021/03/04 11:22:09;;;;;;;12.17;5.93;;;;;;;;;;5064708;28;20464;-83
2021/03/04 11:24:36;;;;;;;11.50;5.97;;;;;;;;;;5066992;28;21339;-85
2021/03/04 11:27:03;;;;;;;8.80;5.70;;;;;;;;;;5046837;28;20481;-84
2021/03/04 11:29:29;;;;;;;10.30;6.30;;;;;;;;;;5071481;28;20429;-82
2021/03/04 11:31:55;;;;;;;10.10;6.10;;;;;;;;;;5069360;28;20434;-82
2021/03/04 11:34:21;;;;;;;9.80;6.03;;;;;;;;;;5068427;28;20490;-82
2021/03/04 11:36:47;;;;;;;21.83;5.80;;;;;;;;;;5061320;28;20716;-81
2021/03/04 11:39:13;;;;;;;11.37;5.20;;;;;;;;;;5067166;28;20452;-83
2021/03/04 11:41:39;;;;;;;12.60;6.37;;;;;;;;;;5071564;28;20988;-83
2021/03/04 11:44:06;;;;;;;10.67;6.27;;;;;;;;;;5071602;28;20436;-82
2021/03/04 11:46:35;;;;;;;12.53;6.07;;;;;;;;;;5065842;28;20448;-82
2021/03/04 11:49:01;;;;;;;22.73;6.80;;;;;;;;;;5073717;28;20921;-83
2021/03/04 11:51:27;;;;;;;14.20;6.30;;;;;;;;;;5069106;28;20922;-81
2021/03/04 11:53:53;;;;;;;12.80;6.00;;;;;;;;;;5059513;28;20529;-82
2021/03/04 11:56:19;;;;;;;9.03;5.33;;;;;;;;;;5070981;28;20443;-83
2021/03/04 11:58:45;;;;;;;13.10;7.10;;;;;;;;;;5068277;28;20445;-82
2021/03/04 12:01:11;;;;;;;7.77;5.47;;;;;;;;;;5041922;28;20450;-84
2021/03/04 12:03:40;;;;;;;12.30;5.70;;;;;;;;;;5067170;28;20536;-82
2021/03/04 12:06:06;;;;;;;19.23;6.40;;;;;;;;;;5070130;28;20424;-82
2021/03/04 12:08:32;;;;;;;12.30;6.00;;;;;;;;;;5071400;28;20432;-81
2021/03/04 12:10:58;;;;;;;10.47;6.40;;;;;;;;;;5072974;28;20413;-81
2021/03/04 12:13:30;;;;;;;11.40;5.73;;;;;;;;;;5081647;28;20455;-83
2021/03/04 12:15:57;;;;;;;27.20;6.33;;;;;;;;;;5094505;28;20401;-84
2021/03/04 12:18:23;;;;;;;11.03;5.10;;;;;;;;;;5083418;28;20527;-83
2021/03/04 12:20:49;;;;;;;12.37;6.07;;;;;;;;;;5069143;28;20463;-82
2021/03/04 12:23:15;;;;;;;20.70;5.77;;;;;;;;;;5075354;28;20959;-83
2021/03/04 12:25:41;;;;;;;13.10;5.37;;;;;;;;;;5080386;28;20486;-84
2021/03/04 12:28:07;;;;;;;11.80;5.50;;;;;;;;;;5076410;28;21272;-85
2021/03/04 12:30:34;;;;;;;11.93;4.77;;;;;;;;;;5071877;28;20445;-84
2021/03/04 12:33:00;;;;;;;12.90;6.07;;;;;;;;;;5071153;28;20447;-83
2021/03/04 12:35:26;;;;;;;21.90;4.97;;;;;;;;;;5061683;28;20730;-82
2021/03/04 12:37:52;;;;;;;13.70;5.50;;;;;;;;;;5082394;28;20481;-83
2021/03/04 12:40:18;;;;;;;16.00;5.60;;;;;;;;;;5076390;28;20493;-83
2021/03/04 12:42:44;;;;;;;13.90;5.40;;;;;;;;;;5071727;28;20506;-83
2021/03/04 12:45:11;;;;;;;34.13;6.30;;;;;;;;;;5072312;28;20979;-82
2021/03/04 12:47:37;;;;;;;8.07;5.40;;;;;;;;;;5075739;28;20421;-84
2021/03/04 12:50:03;;;;;;;14.90;5.73;;;;;;;;;;5072984;28;20416;-84
2021/03/04 12:52:32;;;;;;;12.10;6.00;;;;;;;;;;5066300;28;20453;-84
2021/03/04 12:54:58;;;;;;;12.93;6.00;;;;;;;;;;5072576;28;20474;-83
2021/03/04 12:57:26;;;;;;;21.37;6.03;;;;;;;;;;5070683;28;20424;-84
2021/03/04 12:59:52;;;;;;;15.23;5.80;;;;;;;;;;5063567;28;20449;-83
2021/03/04 13:02:18;;;;;;;16.33;6.40;;;;;;;;;;5048899;28;20497;-84
2021/03/04 13:04:44;;;;;;;9.33;5.27;;;;;;;;;;5059798;28;20436;-85
2021/03/04 13:07:11;;;;;;;14.13;7.10;;;;;;;;;;5077293;28;20892;-85
2021/03/04 13:09:40;;;;;;;12.97;6.50;;;;;;;;;;5072829;28;20433;-84
2021/03/04 13:12:14;;;;;;;16.93;6.77;;;;;;;;;;5081689;28;21326;-86
2021/03/04 13:14:41;;;;;;;16.63;5.53;;;;;;;;;;5077014;28;20473;-85
2021/03/04 13:17:07;;;;;;;13.10;6.90;;;;;;;;;;5068489;28;20765;-85
2021/03/04 13:19:33;;;;;;;16.27;6.10;;;;;;;;;;5075216;28;20480;-84
2021/03/04 13:21:59;;;;;;;22.13;6.40;;;;;;;;;;5050659;28;20445;-86
2021/03/04 13:24:28;;;;;;;13.80;5.90;;;;;;;;;;5062831;28;20428;-86
2021/03/04 13:26:54;;;;;;;12.73;5.07;;;;;;;;;;5080421;28;20405;-85
2021/03/04 13:29:21;;;;;;;11.33;5.53;;;;;;;;;;5067159;28;20448;-84
2021/03/04 13:31:49;;;;;;;8.63;5.33;;;;;;;;;;5084210;28;20420;-87
2021/03/04 13:34:16;;;;;;;13.20;5.80;;;;;;;;;;5084431;28;20799;-85
2021/03/04 13:36:43;;;;;;;13.63;5.27;;;;;;;;;;5076323;28;20437;-84
2021/03/04 13:39:09;;;;;;;10.10;5.20;;;;;;;;;;5067548;28;20532;-84
2021/03/04 13:41:37;;;;;;;18.73;5.67;;;;;;;;;;5070947;28;20915;-85
2021/03/04 13:44:21;;;;;;;19.37;5.50;;;;;;;;;;5068592;28;20416;-86
2021/03/04 13:46:48;;;;;;;14.73;6.00;;;;;;;;;;5067028;28;20423;-86
2021/03/04 13:49:14;;;;;;;14.70;5.93;;;;;;;;;;5052222;28;20487;-86
2021/03/04 13:51:40;;;;;;;13.20;4.93;;;;;;;;;;5064501;28;20916;-84
2021/03/04 13:54:06;;;;;;;13.47;5.30;;;;;;;;;;5074066;28;20932;-83
2021/03/04 13:56:32;;;;;;;12.50;5.33;;;;;;;;;;5072406;28;20845;-83
2021/03/04 13:58:58;;;;;;;12.37;5.90;;;;;;;;;;5064288;28;20490;-84
2021/03/04 14:01:24;;;;;;;11.10;5.60;;;;;;;;;;5066605;28;20468;-85
2021/03/04 14:03:50;;;;;;;14.10;4.97;;;;;;;;;;5069441;28;20440;-84
2021/03/04 14:06:17;;;;;;;11.30;4.40;;;;;;;;;;5065041;28;20456;-84
2021/03/04 14:08:43;;;;;;;11.27;4.00;;;;;;;;;;5066506;28;20566;-83
2021/03/04 14:11:09;;;;;;;8.27;4.40;;;;;;;;;;5066004;28;20437;-84
2021/03/04 14:13:36;;;;;;;7.73;4.20;;;;;;;;;;5052401;28;20454;-84
2021/03/04 14:16:02;;;;;;;8.07;3.70;;;;;;;;;;5065922;28;20420;-85
2021/03/04 14:18:28;;;;;;;9.60;4.27;;;;;;;;;;5068663;28;20530;-82
2021/03/04 14:20:54;;;;;;;8.43;4.43;;;;;;;;;;5050537;28;20884;-82
2021/03/04 14:23:20;;;;;;;7.53;3.60;;;;;;;;;;5067571;28;20452;-81
2021/03/04 14:25:46;;;;;;;11.93;3.30;;;;;;;;;;5070197;28;20410;-83
2021/03/04 14:28:12;;;;;;;7.83;3.77;;;;;;;;;;5073603;28;20421;-83
2021/03/04 14:30:39;;;;;;;6.33;3.50;;;;;;;;;;5071429;28;20409;-86
2021/03/04 14:33:05;;;;;;;8.33;3.40;;;;;;;;;;5064337;28;20440;-85
2021/03/04 14:35:32;;;;;;;7.80;3.80;;;;;;;;;;5073397;28;20413;-84